Time;durP1;ratioP1;P1;durP2;ratioP2;P2;SDS_P1;SDS_P2;PMS_P1;PMS_P2;Temp;Humidity;BMP_temperature;BMP_pressure;BME280_temperature;BME280_humidity;BME280_pressure;Samples;Min_cycle;Max_cycle;Signal;HPM_P1;HPM_P2
2021/05/30 00:01:04;;;;;;;13.0;11.7;;;;;;;13.7;60.2;102590;;;;
2021/05/30 00:05:04;;;;;;;12.8;11.6;;;;;;;13.5;61.3;102590;;;;
2021/05/30 00:07:03;;;;;;;12.8;11.6;;;;;;;13.3;61.6;102590;;;;
2021/05/30 00:09:05;;;;;;;12.8;11.6;;;;;;;13.4;60.7;102590;;;;
2021/05/30 00:11:04;;;;;;;12.8;11.6;;;;;;;13.5;60.3;102590;;;;
2021/05/30 00:13:04;;;;;;;12.8;11.6;;;;;;;13.4;61.0;102600;;;;
2021/05/30 00:15:03;;;;;;;12.8;11.6;;;;;;;13.3;61.1;102590;;;;
2021/05/30 00:17:04;;;;;;;12.8;11.6;;;;;;;13.2;61.1;102590;;;;
2021/05/30 00:19:04;;;;;;;12.8;11.6;;;;;;;13.4;60.0;102590;;;;
2021/05/30 00:21:04;;;;;;;12.8;11.6;;;;;;;13.3;60.9;102590;;;;
2021/05/30 00:23:04;;;;;;;12.8;11.6;;;;;;;13.2;61.1;102590;;;;
2021/05/30 00:25:03;;;;;;;12.8;11.6;;;;;;;12.9;62.2;102590;;;;
2021/05/30 00:27:04;;;;;;;12.8;11.6;;;;;;;12.8;62.7;102590;;;;
2021/05/30 00:31:03;;;;;;;12.8;11.6;;;;;;;12.7;63.2;102590;;;;
2021/05/30 00:35:04;;;;;;;12.8;11.6;;;;;;;12.8;62.4;102590;;;;
2021/05/30 00:37:04;;;;;;;12.8;11.6;;;;;;;12.9;61.4;102590;;;;
2021/05/30 00:47:04;;;;;;;12.9;11.6;;;;;;;12.7;62.4;102590;;;;
2021/05/30 00:49:03;;;;;;;12.9;11.6;;;;;;;12.6;62.9;102590;;;;
2021/05/30 00:51:04;;;;;;;12.9;11.6;;;;;;;12.7;61.7;102590;;;;
2021/05/30 01:01:04;;;;;;;12.9;11.6;;;;;;;12.6;62.1;102590;;;;
2021/05/30 01:07:04;;;;;;;12.9;11.7;;;;;;;12.4;62.7;102590;;;;
2021/05/30 01:09:04;;;;;;;12.9;11.7;;;;;;;12.2;63.3;102600;;;;
2021/05/30 01:11:05;;;;;;;12.9;11.7;;;;;;;12.3;62.4;102590;;;;
2021/05/30 01:15:03;;;;;;;12.9;11.7;;;;;;;12.1;63.4;102600;;;;
2021/05/30 01:21:04;;;;;;;12.9;11.7;;;;;;;12.2;61.7;102600;;;;
2021/05/30 01:23:03;;;;;;;14.3;13.0;;;;;;;12.4;61.9;102590;;;;
2021/05/30 01:25:03;;;;;;;14.3;13.0;;;;;;;12.2;63.8;102600;;;;
2021/05/30 01:31:04;;;;;;;14.3;13.0;;;;;;;12.1;62.3;102600;;;;
2021/05/30 01:33:03;;;;;;;14.3;13.0;;;;;;;11.9;63.3;102600;;;;
2021/05/30 01:35:03;;;;;;;14.3;13.0;;;;;;;12.0;62.6;102600;;;;
2021/05/30 01:41:05;;;;;;;14.3;13.0;;;;;;;11.8;63.9;102600;;;;
2021/05/30 01:43:03;;;;;;;15.6;14.2;;;;;;;11.7;63.8;102600;;;;
2021/05/30 01:45:04;;;;;;;15.6;14.2;;;;;;;11.5;65.0;102590;;;;
2021/05/30 01:47:04;;;;;;;15.6;14.2;;;;;;;11.4;65.5;102590;;;;
2021/05/30 01:49:04;;;;;;;15.6;14.2;;;;;;;11.1;66.7;102580;;;;
2021/05/30 01:51:03;;;;;;;15.6;14.2;;;;;;;11.2;65.8;102590;;;;
2021/05/30 01:53:09;;;;;;;15.6;14.2;;;;;;;11.3;65.5;102580;;;;
2021/05/30 01:55:04;;;;;;;15.6;14.2;;;;;;;11.4;64.3;102580;;;;
2021/05/30 01:59:04;;;;;;;15.6;14.2;;;;;;;11.1;65.9;102580;;;;
2021/05/30 02:03:03;;;;;;;17.9;16.1;;;;;;;11.2;65.7;102580;;;;
2021/05/30 02:11:03;;;;;;;17.9;16.1;;;;;;;11.3;64.9;102580;;;;
2021/05/30 02:13:04;;;;;;;17.9;16.1;;;;;;;11.2;64.7;102580;;;;
2021/05/30 02:15:04;;;;;;;17.9;16.1;;;;;;;11.1;65.5;102580;;;;
2021/05/30 02:17:04;;;;;;;17.9;16.1;;;;;;;11.0;65.0;102580;;;;
2021/05/30 02:19:04;;;;;;;17.9;16.1;;;;;;;11.1;65.0;102580;;;;
2021/05/30 02:21:04;;;;;;;17.9;16.1;;;;;;;11.0;65.4;102580;;;;
2021/05/30 02:25:03;;;;;;;18.8;16.9;;;;;;;10.9;65.2;102580;;;;
2021/05/30 02:27:03;;;;;;;18.8;16.9;;;;;;;11.0;64.9;102580;;;;
2021/05/30 02:29:04;;;;;;;18.8;16.9;;;;;;;10.8;65.9;102580;;;;
2021/05/30 02:31:04;;;;;;;18.8;16.9;;;;;;;10.9;65.2;102580;;;;
2021/05/30 02:35:04;;;;;;;18.8;16.9;;;;;;;10.6;66.7;102590;;;;
2021/05/30 02:37:05;;;;;;;18.8;16.9;;;;;;;10.7;65.8;102580;;;;
2021/05/30 02:39:04;;;;;;;18.8;16.9;;;;;;;10.6;66.1;102580;;;;
2021/05/30 02:43:04;;;;;;;19.0;17.1;;;;;;;10.7;65.5;102590;;;;
2021/05/30 02:45:04;;;;;;;19.0;17.1;;;;;;;10.8;64.5;102590;;;;
2021/05/30 02:47:04;;;;;;;19.0;17.1;;;;;;;10.7;65.9;102580;;;;
2021/05/30 02:51:04;;;;;;;19.0;17.1;;;;;;;10.8;65.0;102580;;;;
2021/05/30 02:53:04;;;;;;;19.0;17.1;;;;;;;10.7;65.3;102580;;;;
2021/05/30 02:55:04;;;;;;;19.0;17.1;;;;;;;10.6;64.9;102580;;;;
2021/05/30 02:57:04;;;;;;;19.0;17.1;;;;;;;10.8;64.4;102580;;;;
2021/05/30 02:59:04;;;;;;;19.0;17.1;;;;;;;10.6;65.3;102580;;;;
2021/05/30 03:05:04;;;;;;;20.0;18.0;;;;;;;10.4;65.6;102580;;;;
2021/05/30 03:13:03;;;;;;;20.0;18.0;;;;;;;10.2;66.6;102590;;;;
2021/05/30 03:17:04;;;;;;;20.0;18.0;;;;;;;10.4;65.4;102590;;;;
2021/05/30 03:19:04;;;;;;;20.0;18.0;;;;;;;10.3;65.4;102590;;;;
2021/05/30 03:23:04;;;;;;;21.0;18.5;;;;;;;10.2;65.8;102600;;;;
2021/05/30 03:29:04;;;;;;;21.0;18.5;;;;;;;10.1;66.1;102590;;;;
2021/05/30 03:31:04;;;;;;;21.0;18.5;;;;;;;10.0;66.5;102580;;;;
2021/05/30 03:33:04;;;;;;;21.0;18.5;;;;;;;10.1;66.6;102590;;;;
2021/05/30 03:35:04;;;;;;;21.0;18.5;;;;;;;10.0;66.5;102590;;;;
2021/05/30 03:37:04;;;;;;;21.0;18.5;;;;;;;10.2;65.3;102590;;;;
2021/05/30 03:39:06;;;;;;;21.0;18.5;;;;;;;10.0;66.2;102590;;;;
2021/05/30 03:43:04;;;;;;;19.3;17.4;;;;;;;10.1;65.7;102590;;;;
2021/05/30 03:45:05;;;;;;;19.3;17.4;;;;;;;10.2;65.6;102590;;;;
2021/05/30 03:49:04;;;;;;;19.3;17.4;;;;;;;10.1;65.5;102590;;;;
2021/05/30 03:51:04;;;;;;;19.3;17.4;;;;;;;10.0;66.2;102600;;;;
2021/05/30 03:53:04;;;;;;;19.3;17.4;;;;;;;9.9;66.3;102590;;;;
2021/05/30 03:55:04;;;;;;;19.3;17.4;;;;;;;9.8;66.9;102600;;;;
2021/05/30 03:57:04;;;;;;;19.3;17.4;;;;;;;9.7;67.0;102600;;;;
2021/05/30 03:59:04;;;;;;;19.3;17.4;;;;;;;9.8;67.0;102600;;;;
2021/05/30 04:01:04;;;;;;;19.3;17.4;;;;;;;9.7;67.5;102600;;;;
2021/05/30 04:05:04;;;;;;;20.8;18.7;;;;;;;9.9;66.7;102600;;;;
2021/05/30 04:11:08;;;;;;;20.8;18.7;;;;;;;10.0;65.7;102590;;;;
2021/05/30 04:15:04;;;;;;;20.8;18.7;;;;;;;9.9;65.9;102590;;;;
2021/05/30 04:17:04;;;;;;;20.8;18.7;;;;;;;10.0;66.2;102590;;;;
2021/05/30 04:19:04;;;;;;;20.8;18.7;;;;;;;9.8;66.8;102590;;;;
2021/05/30 04:23:04;;;;;;;20.6;18.5;;;;;;;9.9;66.9;102590;;;;
2021/05/30 04:27:04;;;;;;;20.6;18.5;;;;;;;9.8;67.0;102590;;;;
2021/05/30 04:31:04;;;;;;;20.6;18.5;;;;;;;9.7;67.5;102590;;;;
2021/05/30 04:33:04;;;;;;;20.6;18.5;;;;;;;9.8;66.7;102590;;;;
2021/05/30 04:39:04;;;;;;;20.6;18.5;;;;;;;9.9;66.9;102590;;;;
2021/05/30 04:47:04;;;;;;;21.2;19.0;;;;;;;9.8;67.2;102590;;;;
2021/05/30 04:49:04;;;;;;;21.2;19.0;;;;;;;10.0;66.5;102590;;;;
2021/05/30 04:51:09;;;;;;;21.2;19.0;;;;;;;9.8;67.5;102590;;;;
2021/05/30 04:53:04;;;;;;;21.2;19.0;;;;;;;9.9;67.3;102600;;;;
2021/05/30 04:55:04;;;;;;;21.2;19.0;;;;;;;9.8;68.0;102600;;;;
2021/05/30 04:57:04;;;;;;;21.2;19.0;;;;;;;9.6;68.8;102610;;;;
2021/05/30 04:59:04;;;;;;;21.2;19.0;;;;;;;9.8;68.4;102600;;;;
2021/05/30 05:01:04;;;;;;;21.2;19.0;;;;;;;9.9;67.9;102600;;;;
2021/05/30 05:03:04;;;;;;;22.2;19.8;;;;;;;10.1;66.3;102600;;;;
2021/05/30 05:05:04;;;;;;;22.2;19.8;;;;;;;10.0;66.7;102600;;;;
2021/05/30 05:07:04;;;;;;;22.2;19.8;;;;;;;9.9;68.0;102610;;;;
2021/05/30 05:09:04;;;;;;;22.2;19.8;;;;;;;9.8;68.3;102610;;;;
2021/05/30 05:11:04;;;;;;;22.2;19.8;;;;;;;9.9;68.4;102610;;;;
2021/05/30 05:15:04;;;;;;;22.2;19.8;;;;;;;10.0;68.0;102610;;;;
2021/05/30 05:17:04;;;;;;;22.2;19.8;;;;;;;10.2;67.2;102620;;;;
2021/05/30 05:19:04;;;;;;;22.2;19.8;;;;;;;10.1;67.2;102620;;;;
2021/05/30 05:21:05;;;;;;;22.2;19.8;;;;;;;10.3;66.1;102610;;;;
2021/05/30 05:23:04;;;;;;;21.8;19.6;;;;;;;10.2;67.4;102610;;;;
2021/05/30 05:27:04;;;;;;;21.8;19.6;;;;;;;10.1;68.3;102610;;;;
2021/05/30 05:27:51;;;;;;;21.8;19.6;;;;;;;10.1;68.3;102610;;;;
2021/05/30 05:31:04;;;;;;;21.8;19.6;;;;;;;10.2;67.9;102620;;;;
2021/05/30 05:33:04;;;;;;;21.8;19.6;;;;;;;10.4;66.4;102610;;;;
2021/05/30 05:35:04;;;;;;;21.8;19.6;;;;;;;10.5;67.0;102610;;;;
2021/05/30 05:37:04;;;;;;;21.8;19.6;;;;;;;10.6;66.6;102610;;;;
2021/05/30 05:39:04;;;;;;;21.8;19.6;;;;;;;10.7;66.5;102610;;;;
2021/05/30 05:41:04;;;;;;;21.8;19.6;;;;;;;10.8;65.8;102610;;;;
2021/05/30 05:51:04;;;;;;;22.3;20.0;;;;;;;10.6;67.6;102610;;;;
2021/05/30 05:53:04;;;;;;;22.3;20.0;;;;;;;10.7;67.9;102610;;;;
2021/05/30 05:55:04;;;;;;;22.3;20.0;;;;;;;10.9;67.2;102610;;;;
2021/05/30 05:57:04;;;;;;;22.3;20.0;;;;;;;11.0;65.8;102600;;;;
2021/05/30 05:59:04;;;;;;;22.3;20.0;;;;;;;11.1;65.8;102600;;;;
2021/05/30 06:01:04;;;;;;;22.3;20.0;;;;;;;11.3;65.6;102610;;;;
2021/05/30 06:03:04;;;;;;;24.9;22.2;;;;;;;11.4;65.9;102610;;;;
2021/05/30 06:05:04;;;;;;;24.9;22.2;;;;;;;11.2;66.7;102610;;;;
2021/05/30 06:07:04;;;;;;;24.9;22.2;;;;;;;11.3;66.1;102610;;;;
2021/05/30 06:09:04;;;;;;;24.9;22.2;;;;;;;11.4;65.9;102610;;;;
2021/05/30 06:11:04;;;;;;;24.9;22.2;;;;;;;11.5;65.5;102620;;;;
2021/05/30 06:13:09;;;;;;;24.9;22.2;;;;;;;11.4;66.9;102620;;;;
2021/05/30 06:17:04;;;;;;;24.9;22.2;;;;;;;11.5;66.4;102620;;;;
2021/05/30 06:19:04;;;;;;;24.9;22.2;;;;;;;11.7;66.0;102620;;;;
2021/05/30 06:21:04;;;;;;;24.9;22.2;;;;;;;11.9;65.0;102620;;;;
2021/05/30 06:27:04;;;;;;;25.7;23.0;;;;;;;12.1;64.8;102620;;;;
2021/05/30 06:29:04;;;;;;;25.7;23.0;;;;;;;11.9;66.0;102630;;;;
2021/05/30 06:31:04;;;;;;;25.7;23.0;;;;;;;12.0;65.7;102620;;;;
2021/05/30 06:35:04;;;;;;;25.7;23.0;;;;;;;12.1;65.9;102620;;;;
2021/05/30 06:37:04;;;;;;;25.7;23.0;;;;;;;11.9;66.1;102620;;;;
2021/05/30 06:41:04;;;;;;;25.7;23.0;;;;;;;12.1;65.5;102620;;;;
2021/05/30 06:43:04;;;;;;;25.6;23.0;;;;;;;12.2;65.3;102620;;;;
2021/05/30 06:45:04;;;;;;;25.6;23.0;;;;;;;12.3;65.5;102620;;;;
2021/05/30 06:49:04;;;;;;;25.6;23.0;;;;;;;12.4;65.3;102620;;;;
2021/05/30 06:53:08;;;;;;;25.6;23.0;;;;;;;12.6;65.0;102620;;;;
2021/05/30 06:57:04;;;;;;;25.6;23.0;;;;;;;12.7;64.8;102620;;;;
2021/05/30 06:59:04;;;;;;;25.6;23.0;;;;;;;12.8;65.1;102620;;;;
2021/05/30 07:01:04;;;;;;;25.6;23.0;;;;;;;12.9;64.5;102620;;;;
2021/05/30 07:03:04;;;;;;;25.1;22.5;;;;;;;12.8;64.4;102620;;;;
2021/05/30 07:05:04;;;;;;;25.1;22.5;;;;;;;12.9;64.8;102630;;;;
2021/05/30 07:07:04;;;;;;;25.1;22.5;;;;;;;13.1;64.5;102620;;;;
2021/05/30 07:09:05;;;;;;;25.1;22.5;;;;;;;13.2;64.8;102620;;;;
2021/05/30 07:11:07;;;;;;;25.1;22.5;;;;;;;13.3;63.8;102620;;;;
2021/05/30 07:15:04;;;;;;;25.1;22.5;;;;;;;13.5;63.4;102620;;;;
2021/05/30 07:23:04;;;;;;;25.4;22.9;;;;;;;13.6;63.8;102610;;;;
2021/05/30 07:27:04;;;;;;;25.4;22.9;;;;;;;13.7;63.7;102610;;;;
2021/05/30 07:29:04;;;;;;;25.4;22.9;;;;;;;13.9;63.3;102610;;;;
2021/05/30 07:31:04;;;;;;;25.4;22.9;;;;;;;14.0;63.8;102610;;;;
2021/05/30 07:33:04;;;;;;;25.4;22.9;;;;;;;14.1;62.3;102610;;;;
2021/05/30 07:37:04;;;;;;;25.4;22.9;;;;;;;14.2;63.2;102610;;;;
2021/05/30 07:39:04;;;;;;;25.4;22.9;;;;;;;14.5;63.2;102610;;;;
2021/05/30 07:45:04;;;;;;;24.5;22.1;;;;;;;14.5;61.8;102620;;;;
2021/05/30 07:47:04;;;;;;;24.5;22.1;;;;;;;14.8;61.7;102620;;;;
2021/05/30 07:49:04;;;;;;;24.5;22.1;;;;;;;14.7;61.3;102620;;;;
2021/05/30 07:51:04;;;;;;;24.5;22.1;;;;;;;14.9;61.2;102620;;;;
2021/05/30 07:55:04;;;;;;;24.5;22.1;;;;;;;15.0;60.7;102620;;;;
2021/05/30 07:59:04;;;;;;;24.5;22.1;;;;;;;15.2;59.4;102620;;;;
2021/05/30 08:01:04;;;;;;;20.2;18.1;;;;;;;15.5;58.5;102620;;;;
2021/05/30 08:03:04;;;;;;;20.2;18.1;;;;;;;15.2;59.0;102620;;;;
2021/05/30 08:05:05;;;;;;;20.2;18.1;;;;;;;15.5;59.7;102630;;;;
2021/05/30 08:07:04;;;;;;;20.2;18.1;;;;;;;15.6;58.6;102630;;;;
2021/05/30 08:11:04;;;;;;;20.2;18.1;;;;;;;15.5;58.9;102620;;;;
2021/05/30 08:13:04;;;;;;;20.2;18.1;;;;;;;15.6;58.3;102630;;;;
2021/05/30 08:15:04;;;;;;;20.2;18.1;;;;;;;15.8;58.5;102620;;;;
2021/05/30 08:17:04;;;;;;;20.2;18.1;;;;;;;15.7;58.7;102620;;;;
2021/05/30 08:19:04;;;;;;;20.2;18.1;;;;;;;15.8;58.0;102620;;;;
2021/05/30 08:23:04;;;;;;;20.0;18.1;;;;;;;15.9;57.9;102620;;;;
2021/05/30 08:25:04;;;;;;;20.0;18.1;;;;;;;16.0;57.4;102610;;;;
2021/05/30 08:27:04;;;;;;;20.0;18.1;;;;;;;16.1;57.9;102610;;;;
2021/05/30 08:29:04;;;;;;;20.0;18.1;;;;;;;16.2;57.9;102610;;;;
2021/05/30 08:31:04;;;;;;;20.0;18.1;;;;;;;16.0;56.9;102610;;;;
2021/05/30 08:33:04;;;;;;;20.0;18.1;;;;;;;16.2;56.7;102620;;;;
2021/05/30 08:35:04;;;;;;;20.0;18.1;;;;;;;16.0;57.3;102620;;;;
2021/05/30 08:37:04;;;;;;;20.0;18.1;;;;;;;16.3;57.2;102600;;;;
2021/05/30 08:39:04;;;;;;;20.0;18.1;;;;;;;16.6;56.5;102610;;;;
2021/05/30 08:43:04;;;;;;;17.9;16.1;;;;;;;16.7;56.3;102610;;;;
2021/05/30 08:45:04;;;;;;;17.9;16.1;;;;;;;16.6;55.8;102610;;;;
2021/05/30 08:47:04;;;;;;;17.9;16.1;;;;;;;16.9;53.5;102610;;;;
2021/05/30 08:51:05;;;;;;;17.9;16.1;;;;;;;17.0;53.8;102610;;;;
2021/05/30 08:53:04;;;;;;;17.9;16.1;;;;;;;16.9;53.4;102610;;;;
2021/05/30 08:57:04;;;;;;;17.9;16.1;;;;;;;16.7;51.7;102600;;;;
2021/05/30 08:59:04;;;;;;;17.9;16.1;;;;;;;16.8;52.9;102600;;;;
2021/05/30 09:01:04;;;;;;;13.5;12.2;;;;;;;17.0;52.3;102600;;;;
2021/05/30 09:05:04;;;;;;;13.5;12.2;;;;;;;17.1;52.0;102600;;;;
2021/05/30 09:07:04;;;;;;;13.5;12.2;;;;;;;17.2;51.6;102600;;;;
2021/05/30 09:09:04;;;;;;;13.5;12.2;;;;;;;17.3;51.7;102600;;;;
2021/05/30 09:13:04;;;;;;;13.5;12.2;;;;;;;17.4;50.7;102600;;;;
2021/05/30 09:23:04;;;;;;;10.9;9.8;;;;;;;17.7;51.0;102590;;;;
2021/05/30 09:25:06;;;;;;;10.9;9.8;;;;;;;18.0;49.7;102590;;;;
2021/05/30 09:27:04;;;;;;;10.9;9.8;;;;;;;17.9;48.3;102600;;;;
2021/05/30 09:31:04;;;;;;;10.9;9.8;;;;;;;17.6;47.6;102590;;;;
2021/05/30 09:33:04;;;;;;;10.9;9.8;;;;;;;17.5;47.7;102590;;;;
2021/05/30 09:35:04;;;;;;;10.9;9.8;;;;;;;17.6;48.2;102590;;;;
2021/05/30 09:37:04;;;;;;;10.9;9.8;;;;;;;17.8;47.8;102590;;;;
2021/05/30 09:39:04;;;;;;;10.9;9.8;;;;;;;18.0;47.3;102580;;;;
2021/05/30 09:41:04;;;;;;;8.5;7.7;;;;;;;18.2;46.5;102580;;;;
2021/05/30 09:47:04;;;;;;;8.5;7.7;;;;;;;18.1;46.4;102570;;;;
2021/05/30 09:49:04;;;;;;;8.5;7.7;;;;;;;18.2;45.7;102580;;;;
2021/05/30 09:51:04;;;;;;;8.5;7.7;;;;;;;18.3;46.1;102580;;;;
2021/05/30 09:53:04;;;;;;;8.5;7.7;;;;;;;18.5;45.7;102580;;;;
2021/05/30 09:55:04;;;;;;;8.5;7.7;;;;;;;18.6;44.6;102580;;;;
2021/05/30 09:57:04;;;;;;;8.5;7.7;;;;;;;18.5;45.7;102570;;;;
2021/05/30 10:03:04;;;;;;;5.7;5.2;;;;;;;18.4;43.5;102560;;;;
2021/05/30 10:09:04;;;;;;;5.7;5.2;;;;;;;18.6;43.4;102560;;;;
2021/05/30 10:11:04;;;;;;;5.7;5.2;;;;;;;18.7;43.8;102560;;;;
2021/05/30 10:13:04;;;;;;;5.7;5.2;;;;;;;18.9;42.2;102550;;;;
2021/05/30 10:15:04;;;;;;;5.7;5.2;;;;;;;19.1;42.5;102560;;;;
2021/05/30 10:17:04;;;;;;;5.7;5.2;;;;;;;19.3;43.3;102560;;;;
2021/05/30 10:19:04;;;;;;;5.7;5.2;;;;;;;19.0;44.2;102560;;;;
2021/05/30 10:21:04;;;;;;;4.6;4.2;;;;;;;19.4;43.9;102550;;;;
2021/05/30 10:23:04;;;;;;;4.6;4.2;;;;;;;19.2;41.4;102560;;;;
2021/05/30 10:27:04;;;;;;;4.6;4.2;;;;;;;19.4;42.0;102550;;;;
2021/05/30 10:29:04;;;;;;;4.6;4.2;;;;;;;19.6;40.9;102560;;;;
2021/05/30 10:33:04;;;;;;;4.6;4.2;;;;;;;19.7;39.3;102550;;;;
2021/05/30 10:45:04;;;;;;;4.4;4.0;;;;;;;19.9;39.8;102550;;;;
2021/05/30 10:47:04;;;;;;;4.4;4.0;;;;;;;19.6;39.8;102550;;;;
2021/05/30 10:49:04;;;;;;;4.4;4.0;;;;;;;20.0;39.3;102550;;;;
2021/05/30 10:55:04;;;;;;;4.4;4.0;;;;;;;20.1;39.6;102550;;;;
2021/05/30 10:57:04;;;;;;;4.4;4.0;;;;;;;20.0;38.7;102550;;;;
2021/05/30 10:59:04;;;;;;;4.4;4.0;;;;;;;20.2;38.9;102550;;;;
2021/05/30 11:01:04;;;;;;;5.5;4.0;;;;;;;20.1;38.6;102540;;;;
2021/05/30 11:03:05;;;;;;;5.5;4.0;;;;;;;20.2;37.2;102540;;;;
2021/05/30 11:07:04;;;;;;;5.5;4.0;;;;;;;20.4;38.1;102540;;;;
2021/05/30 11:09:04;;;;;;;5.5;4.0;;;;;;;20.3;36.9;102530;;;;
2021/05/30 11:11:04;;;;;;;5.5;4.0;;;;;;;20.1;36.5;102530;;;;
2021/05/30 11:15:04;;;;;;;5.5;4.0;;;;;;;19.8;35.6;102530;;;;
2021/05/30 11:17:04;;;;;;;5.5;4.0;;;;;;;20.1;39.1;102520;;;;
2021/05/30 11:19:04;;;;;;;5.5;4.0;;;;;;;20.3;36.4;102520;;;;
2021/05/30 11:21:04;;;;;;;3.1;2.9;;;;;;;20.5;37.2;102510;;;;
2021/05/30 11:25:04;;;;;;;3.1;2.9;;;;;;;20.6;34.9;102510;;;;
2021/05/30 11:27:04;;;;;;;3.1;2.9;;;;;;;20.5;34.9;102510;;;;
2021/05/30 11:31:04;;;;;;;3.1;2.9;;;;;;;20.7;37.2;102500;;;;
2021/05/30 11:35:04;;;;;;;3.1;2.9;;;;;;;20.6;35.7;102500;;;;
2021/05/30 11:37:04;;;;;;;3.1;2.9;;;;;;;20.7;35.2;102490;;;;
2021/05/30 11:41:04;;;;;;;3.1;2.6;;;;;;;21.0;33.9;102480;;;;
2021/05/30 11:51:04;;;;;;;3.1;2.6;;;;;;;21.1;35.1;102480;;;;
2021/05/30 11:53:04;;;;;;;3.1;2.6;;;;;;;21.2;34.4;102470;;;;
2021/05/30 11:55:04;;;;;;;3.1;2.6;;;;;;;21.4;33.5;102480;;;;
2021/05/30 11:57:04;;;;;;;3.1;2.6;;;;;;;21.3;34.2;102480;;;;
2021/05/30 11:59:04;;;;;;;3.1;2.6;;;;;;;21.5;34.6;102480;;;;
2021/05/30 12:01:04;;;;;;;3.1;2.8;;;;;;;21.2;34.6;102480;;;;
2021/05/30 12:03:04;;;;;;;3.1;2.8;;;;;;;21.4;35.6;102470;;;;
2021/05/30 12:05:04;;;;;;;3.1;2.8;;;;;;;21.8;35.2;102470;;;;
2021/05/30 12:07:04;;;;;;;3.1;2.8;;;;;;;21.6;33.4;102470;;;;
2021/05/30 12:09:04;;;;;;;3.1;2.8;;;;;;;21.5;34.0;102460;;;;
2021/05/30 12:11:04;;;;;;;3.1;2.8;;;;;;;21.4;33.4;102470;;;;
2021/05/30 12:13:04;;;;;;;3.1;2.8;;;;;;;21.6;33.2;102470;;;;
2021/05/30 12:15:04;;;;;;;3.1;2.8;;;;;;;21.7;34.1;102470;;;;
2021/05/30 12:17:04;;;;;;;3.1;2.8;;;;;;;21.6;34.5;102470;;;;
2021/05/30 12:19:04;;;;;;;3.1;2.8;;;;;;;21.7;32.3;102470;;;;
2021/05/30 12:21:04;;;;;;;2.8;2.2;;;;;;;21.5;32.6;102460;;;;
2021/05/30 12:23:04;;;;;;;2.8;2.2;;;;;;;21.6;33.5;102470;;;;
2021/05/30 12:25:04;;;;;;;2.8;2.2;;;;;;;21.8;33.9;102470;;;;
2021/05/30 12:27:04;;;;;;;2.8;2.2;;;;;;;21.5;32.3;102460;;;;
2021/05/30 12:29:04;;;;;;;2.8;2.2;;;;;;;21.6;31.3;102460;;;;
2021/05/30 12:33:04;;;;;;;2.8;2.2;;;;;;;21.9;31.1;102460;;;;
2021/05/30 12:35:04;;;;;;;2.8;2.2;;;;;;;21.8;32.0;102460;;;;
2021/05/30 12:37:04;;;;;;;2.8;2.2;;;;;;;22.1;32.7;102460;;;;
2021/05/30 12:39:04;;;;;;;2.8;2.2;;;;;;;21.8;31.0;102460;;;;
2021/05/30 12:43:04;;;;;;;3.1;2.6;;;;;;;22.1;32.6;102450;;;;
2021/05/30 12:45:04;;;;;;;3.1;2.6;;;;;;;22.3;33.0;102450;;;;
2021/05/30 12:49:04;;;;;;;3.1;2.6;;;;;;;22.0;31.3;102450;;;;
2021/05/30 12:51:04;;;;;;;3.1;2.6;;;;;;;22.1;32.2;102440;;;;
2021/05/30 12:53:04;;;;;;;3.1;2.6;;;;;;;22.3;31.5;102450;;;;
2021/05/30 12:55:06;;;;;;;3.1;2.6;;;;;;;22.4;31.3;102450;;;;
2021/05/30 12:57:04;;;;;;;3.1;2.6;;;;;;;22.1;30.2;102440;;;;
2021/05/30 12:59:04;;;;;;;3.1;2.6;;;;;;;22.0;30.8;102440;;;;
2021/05/30 13:01:04;;;;;;;3.8;2.4;;;;;;;22.4;30.2;102440;;;;
2021/05/30 13:03:04;;;;;;;3.8;2.4;;;;;;;22.0;30.4;102440;;;;
2021/05/30 13:05:04;;;;;;;3.8;2.4;;;;;;;22.3;31.5;102440;;;;
2021/05/30 13:07:04;;;;;;;3.8;2.4;;;;;;;22.4;30.7;102440;;;;
2021/05/30 13:11:07;;;;;;;3.8;2.4;;;;;;;22.0;33.3;102430;;;;
2021/05/30 13:13:04;;;;;;;3.8;2.4;;;;;;;22.3;32.3;102440;;;;
2021/05/30 13:15:04;;;;;;;3.8;2.4;;;;;;;22.2;31.4;102430;;;;
2021/05/30 13:17:04;;;;;;;3.8;2.4;;;;;;;22.5;34.2;102430;;;;
2021/05/30 13:19:04;;;;;;;3.8;2.4;;;;;;;22.6;32.3;102420;;;;
2021/05/30 13:21:04;;;;;;;2.3;2.1;;;;;;;22.7;30.9;102420;;;;
2021/05/30 13:25:04;;;;;;;2.3;2.1;;;;;;;22.9;32.9;102420;;;;
2021/05/30 13:27:04;;;;;;;2.3;2.1;;;;;;;23.2;32.5;102410;;;;
2021/05/30 13:29:04;;;;;;;2.3;2.1;;;;;;;22.6;33.5;102410;;;;
2021/05/30 13:31:14;;;;;;;2.3;2.1;;;;;;;22.8;31.5;102410;;;;
2021/05/30 13:33:04;;;;;;;2.3;2.1;;;;;;;23.0;31.5;102400;;;;
2021/05/30 13:35:04;;;;;;;2.3;2.1;;;;;;;22.8;31.8;102400;;;;
2021/05/30 13:37:04;;;;;;;2.3;2.1;;;;;;;22.7;30.8;102400;;;;
2021/05/30 13:39:04;;;;;;;2.3;2.1;;;;;;;22.9;31.4;102410;;;;
2021/05/30 13:41:10;;;;;;;4.2;2.6;;;;;;;22.8;30.1;102410;;;;
2021/05/30 13:43:04;;;;;;;4.2;2.6;;;;;;;22.9;31.5;102400;;;;
2021/05/30 13:47:04;;;;;;;4.2;2.6;;;;;;;23.2;30.6;102390;;;;
2021/05/30 13:49:04;;;;;;;4.2;2.6;;;;;;;23.1;30.8;102390;;;;
2021/05/30 13:51:11;;;;;;;4.2;2.6;;;;;;;23.3;30.1;102390;;;;
2021/05/30 13:53:06;;;;;;;4.2;2.6;;;;;;;23.0;30.0;102400;;;;
2021/05/30 13:57:04;;;;;;;4.2;2.6;;;;;;;23.3;31.8;102390;;;;
2021/05/30 13:59:04;;;;;;;4.2;2.6;;;;;;;23.7;30.5;102390;;;;
2021/05/30 14:01:04;;;;;;;4.6;3.2;;;;;;;23.9;30.8;102390;;;;
2021/05/30 14:03:04;;;;;;;4.6;3.2;;;;;;;24.3;31.6;102390;;;;
2021/05/30 14:05:06;;;;;;;4.6;3.2;;;;;;;23.9;32.8;102380;;;;
2021/05/30 14:07:04;;;;;;;4.6;3.2;;;;;;;24.1;32.2;102370;;;;
2021/05/30 14:09:04;;;;;;;4.6;3.2;;;;;;;23.9;30.4;102380;;;;
2021/05/30 14:11:04;;;;;;;4.6;3.2;;;;;;;23.6;30.3;102380;;;;
2021/05/30 14:13:04;;;;;;;4.6;3.2;;;;;;;24.0;32.4;102370;;;;
2021/05/30 14:17:04;;;;;;;4.6;3.2;;;;;;;24.2;32.4;102360;;;;
2021/05/30 14:19:04;;;;;;;4.6;3.2;;;;;;;24.1;29.9;102370;;;;
2021/05/30 14:21:04;;;;;;;9.7;7.7;;;;;;;24.2;31.5;102370;;;;
2021/05/30 14:23:04;;;;;;;9.7;7.7;;;;;;;24.0;31.3;102370;;;;
2021/05/30 14:27:04;;;;;;;9.7;7.7;;;;;;;24.3;32.9;102380;;;;
2021/05/30 14:29:04;;;;;;;9.7;7.7;;;;;;;24.5;32.0;102370;;;;
2021/05/30 14:31:04;;;;;;;9.7;7.7;;;;;;;24.2;29.0;102370;;;;
2021/05/30 14:33:04;;;;;;;9.7;7.7;;;;;;;24.7;32.5;102370;;;;
2021/05/30 14:35:05;;;;;;;9.7;7.7;;;;;;;24.6;29.1;102370;;;;
2021/05/30 14:37:05;;;;;;;9.7;7.7;;;;;;;25.0;30.9;102370;;;;
2021/05/30 14:39:04;;;;;;;9.7;7.7;;;;;;;24.5;29.5;102370;;;;
2021/05/30 14:41:04;;;;;;;2.7;2.5;;;;;;;24.9;31.5;102360;;;;
2021/05/30 14:43:04;;;;;;;2.7;2.5;;;;;;;25.4;30.4;102370;;;;
2021/05/30 14:45:04;;;;;;;2.7;2.5;;;;;;;25.6;29.8;102360;;;;
2021/05/30 14:47:04;;;;;;;2.7;2.5;;;;;;;25.9;30.9;102360;;;;
2021/05/30 14:49:04;;;;;;;2.7;2.5;;;;;;;26.2;28.8;102350;;;;
2021/05/30 14:51:04;;;;;;;2.7;2.5;;;;;;;26.3;29.8;102350;;;;
2021/05/30 14:55:04;;;;;;;2.7;2.5;;;;;;;25.9;30.2;102360;;;;
2021/05/30 14:59:04;;;;;;;2.7;2.5;;;;;;;25.8;26.3;102350;;;;
2021/05/30 15:01:04;;;;;;;6.1;5.6;;;;;;;26.0;28.9;102350;;;;
2021/05/30 15:03:04;;;;;;;6.1;5.6;;;;;;;26.3;27.6;102340;;;;
2021/05/30 15:05:04;;;;;;;6.1;5.6;;;;;;;26.5;26.2;102330;;;;
2021/05/30 15:07:04;;;;;;;6.1;5.6;;;;;;;26.4;27.0;102330;;;;
2021/05/30 15:11:04;;;;;;;6.1;5.6;;;;;;;25.8;27.0;102330;;;;
2021/05/30 15:13:04;;;;;;;6.1;5.6;;;;;;;26.0;26.5;102330;;;;
2021/05/30 15:15:05;;;;;;;6.1;5.6;;;;;;;26.9;27.9;102340;;;;
2021/05/30 15:17:04;;;;;;;6.1;5.6;;;;;;;26.6;26.1;102330;;;;
2021/05/30 15:19:04;;;;;;;6.1;5.6;;;;;;;26.9;28.1;102320;;;;
2021/05/30 15:21:04;;;;;;;4.4;2.9;;;;;;;27.0;26.3;102320;;;;
2021/05/30 15:23:04;;;;;;;4.4;2.9;;;;;;;27.6;27.7;102320;;;;
2021/05/30 15:25:04;;;;;;;4.4;2.9;;;;;;;27.5;26.3;102320;;;;
2021/05/30 15:27:04;;;;;;;4.4;2.9;;;;;;;27.1;27.3;102320;;;;
2021/05/30 15:29:05;;;;;;;4.4;2.9;;;;;;;27.3;27.0;102310;;;;
2021/05/30 15:31:04;;;;;;;4.4;2.9;;;;;;;27.9;28.1;102320;;;;
2021/05/30 15:33:04;;;;;;;4.4;2.9;;;;;;;28.6;27.8;102310;;;;
2021/05/30 15:35:04;;;;;;;4.4;2.9;;;;;;;28.0;29.7;102310;;;;
2021/05/30 15:39:04;;;;;;;4.4;2.9;;;;;;;27.8;27.3;102310;;;;
2021/05/30 15:41:04;;;;;;;4.2;3.2;;;;;;;27.9;27.1;102300;;;;
2021/05/30 15:43:04;;;;;;;4.2;3.2;;;;;;;28.1;26.5;102300;;;;
2021/05/30 15:45:04;;;;;;;4.2;3.2;;;;;;;27.7;26.0;102310;;;;
2021/05/30 15:49:04;;;;;;;4.2;3.2;;;;;;;27.6;26.5;102300;;;;
2021/05/30 15:55:04;;;;;;;4.2;3.2;;;;;;;27.4;27.0;102300;;;;
2021/05/30 15:57:04;;;;;;;4.2;3.2;;;;;;;26.8;25.6;102300;;;;
2021/05/30 15:59:04;;;;;;;4.2;3.2;;;;;;;27.0;27.6;102290;;;;
2021/05/30 16:01:04;;;;;;;2.9;2.6;;;;;;;27.8;26.6;102290;;;;
2021/05/30 16:03:04;;;;;;;2.9;2.6;;;;;;;27.7;27.0;102290;;;;
2021/05/30 16:07:04;;;;;;;2.9;2.6;;;;;;;28.1;26.9;102280;;;;
2021/05/30 16:09:08;;;;;;;2.9;2.6;;;;;;;27.7;26.0;102280;;;;
2021/05/30 16:15:04;;;;;;;2.9;2.6;;;;;;;27.5;27.6;102290;;;;
2021/05/30 16:17:04;;;;;;;2.9;2.6;;;;;;;27.1;29.8;102280;;;;
2021/05/30 16:19:04;;;;;;;2.9;2.6;;;;;;;27.2;27.2;102270;;;;
2021/05/30 16:21:04;;;;;;;3.3;3.0;;;;;;;27.4;25.8;102280;;;;
2021/05/30 16:23:04;;;;;;;3.3;3.0;;;;;;;27.2;28.4;102270;;;;
2021/05/30 16:25:04;;;;;;;3.3;3.0;;;;;;;27.8;27.6;102260;;;;
2021/05/30 16:27:04;;;;;;;3.3;3.0;;;;;;;28.1;24.6;102260;;;;
2021/05/30 16:29:04;;;;;;;3.3;3.0;;;;;;;27.5;24.6;102260;;;;
2021/05/30 16:31:04;;;;;;;3.3;3.0;;;;;;;27.1;25.2;102260;;;;
2021/05/30 16:35:04;;;;;;;3.3;3.0;;;;;;;27.2;26.4;102260;;;;
2021/05/30 16:37:04;;;;;;;3.3;3.0;;;;;;;27.6;27.2;102260;;;;
2021/05/30 16:39:04;;;;;;;3.3;3.0;;;;;;;27.9;26.0;102260;;;;
2021/05/30 16:45:04;;;;;;;2.9;2.6;;;;;;;27.3;25.6;102260;;;;
2021/05/30 16:47:04;;;;;;;2.9;2.6;;;;;;;27.5;26.5;102250;;;;
2021/05/30 16:49:04;;;;;;;2.9;2.6;;;;;;;28.0;24.8;102250;;;;
2021/05/30 16:51:04;;;;;;;2.9;2.6;;;;;;;27.7;25.8;102250;;;;
2021/05/30 16:55:04;;;;;;;2.9;2.6;;;;;;;27.9;29.5;102250;;;;
2021/05/30 16:57:04;;;;;;;2.9;2.6;;;;;;;28.1;26.2;102250;;;;
2021/05/30 16:59:04;;;;;;;2.9;2.6;;;;;;;28.4;27.3;102250;;;;
2021/05/30 17:01:04;;;;;;;3.2;2.8;;;;;;;28.3;24.6;102240;;;;
2021/05/30 17:03:04;;;;;;;3.2;2.8;;;;;;;27.7;26.1;102250;;;;
2021/05/30 17:07:04;;;;;;;3.2;2.8;;;;;;;27.4;26.7;102240;;;;
2021/05/30 17:09:04;;;;;;;3.2;2.8;;;;;;;27.5;26.7;102250;;;;
2021/05/30 17:11:04;;;;;;;3.2;2.8;;;;;;;27.4;25.6;102250;;;;
2021/05/30 17:13:04;;;;;;;3.2;2.8;;;;;;;27.9;26.7;102240;;;;
2021/05/30 17:15:04;;;;;;;3.2;2.8;;;;;;;27.6;25.3;102240;;;;
2021/05/30 17:21:04;;;;;;;3.2;2.8;;;;;;;27.0;26.0;102240;;;;
2021/05/30 17:23:05;;;;;;;3.2;2.8;;;;;;;26.8;28.2;102240;;;;